createdAt,value
2018-08-03T00:00:24.510Z,0
2018-08-03T00:01:24.775Z,0
2018-08-03T00:02:24.763Z,0
2018-08-03T00:03:24.767Z,0
2018-08-03T00:04:24.502Z,0
2018-08-03T00:05:24.759Z,0
2018-08-03T00:06:24.505Z,0
2018-08-03T00:07:24.754Z,0
2018-08-03T00:08:24.498Z,0
2018-08-03T00:09:24.748Z,0
2018-08-03T00:10:24.498Z,0
2018-08-03T00:11:24.746Z,0
2018-08-03T00:12:24.753Z,0
2018-08-03T00:13:24.744Z,0
2018-08-03T00:14:24.744Z,0
2018-08-03T00:15:24.750Z,0
2018-08-03T00:16:24.489Z,0
2018-08-03T00:17:24.238Z,0
2018-08-03T00:18:24.740Z,0
2018-08-03T00:19:24.736Z,0
2018-08-03T00:20:24.741Z,0
2018-08-03T00:21:24.746Z,0
2018-08-03T00:22:24.739Z,0
2018-08-03T00:23:24.731Z,0
2018-08-03T00:24:24.735Z,0
2018-08-03T00:25:24.734Z,0
2018-08-03T00:26:24.482Z,0
2018-08-03T00:27:24.737Z,0
2018-08-03T00:28:24.729Z,0
2018-08-03T00:29:24.727Z,0
2018-08-03T00:30:24.220Z,0
2018-08-03T00:31:24.723Z,0
2018-08-03T00:32:24.721Z,0
2018-08-03T00:33:24.216Z,0
2018-08-03T00:34:24.720Z,0
2018-08-03T00:35:24.214Z,0
2018-08-03T00:36:24.213Z,0
2018-08-03T00:37:24.714Z,0
2018-08-03T00:38:24.718Z,0
2018-08-03T00:39:24.714Z,0
2018-08-03T00:40:24.462Z,0
2018-08-03T00:41:24.715Z,0
2018-08-03T00:42:24.453Z,0
2018-08-03T00:43:24.453Z,0
2018-08-03T00:44:24.702Z,0
2018-08-03T00:45:24.702Z,0
2018-08-03T00:46:24.708Z,0
2018-08-03T00:47:24.697Z,0
2018-08-03T00:48:24.196Z,0
2018-08-03T00:49:24.698Z,0
2018-08-03T00:50:24.442Z,0
2018-08-03T00:52:24.695Z,0
2018-08-03T00:53:24.690Z,0
2018-08-03T00:54:24.185Z,0
2018-08-03T00:55:24.689Z,0
2018-08-03T00:56:24.684Z,0
2018-08-03T00:57:24.686Z,0
2018-08-03T00:58:24.680Z,0
2018-08-03T00:59:24.679Z,0
2018-08-03T01:00:24.427Z,0
2018-08-03T01:01:24.437Z,0
2018-08-03T01:02:24.425Z,0
2018-08-03T01:03:24.674Z,0
2018-08-03T01:04:24.421Z,0
2018-08-03T01:05:24.675Z,0
2018-08-03T01:06:24.676Z,0
2018-08-03T01:07:24.164Z,0
2018-08-03T01:08:24.667Z,0
2018-08-03T01:09:24.666Z,0
2018-08-03T01:10:24.660Z,0
2018-08-03T01:11:24.408Z,0
2018-08-03T01:12:24.407Z,0
2018-08-03T01:13:24.413Z,0
2018-08-03T01:14:24.654Z,0
2018-08-03T01:15:24.657Z,0
2018-08-03T01:16:24.652Z,0
2018-08-03T01:17:24.399Z,0
2018-08-03T01:18:24.649Z,0
2018-08-03T01:19:24.647Z,0
2018-08-03T01:20:24.646Z,0
2018-08-03T01:21:24.644Z,0
2018-08-03T01:22:24.641Z,0
2018-08-03T01:23:24.394Z,0
2018-08-03T01:24:24.642Z,0
2018-08-03T01:25:24.383Z,0
2018-08-03T01:26:24.136Z,0
2018-08-03T01:27:24.633Z,0
2018-08-03T01:28:24.634Z,0
2018-08-03T01:29:24.421Z,0
2018-08-03T01:30:24.373Z,0
2018-08-03T01:31:24.629Z,0
2018-08-03T01:32:24.376Z,0
2018-08-03T01:33:24.374Z,0
2018-08-03T01:34:24.371Z,0
2018-08-03T01:35:24.366Z,0
2018-08-03T01:36:24.617Z,0
2018-08-03T01:37:24.618Z,0
2018-08-03T01:38:24.362Z,0
2018-08-03T01:39:24.611Z,0
2018-08-03T01:40:24.606Z,0
2018-08-03T01:41:24.619Z,0
2018-08-03T01:42:24.647Z,0
2018-08-03T01:43:24.105Z,0
2018-08-03T01:44:24.604Z,0
2018-08-03T01:45:24.604Z,0
2018-08-03T01:46:24.345Z,0
2018-08-03T01:47:24.607Z,0
2018-08-03T01:48:24.352Z,0
2018-08-03T01:49:24.591Z,0
2018-08-03T01:50:24.594Z,0
2018-08-03T01:51:24.338Z,0
2018-08-03T01:52:24.343Z,0
2018-08-03T01:53:24.586Z,0
2018-08-03T01:54:24.585Z,0
2018-08-03T01:55:24.579Z,0
2018-08-03T01:56:24.331Z,0
2018-08-03T01:57:24.335Z,0
2018-08-03T01:58:24.578Z,0
2018-08-03T01:59:24.577Z,0
2018-08-03T02:00:24.072Z,0
2018-08-03T02:01:24.076Z,0
2018-08-03T02:02:24.068Z,0
2018-08-03T02:03:24.840Z,0
2018-08-03T02:04:24.064Z,0
2018-08-03T02:05:24.573Z,0
2018-08-03T02:06:24.316Z,0
2018-08-03T02:07:24.563Z,0
2018-08-03T02:08:24.558Z,0
2018-08-03T02:09:24.560Z,0
2018-08-03T02:10:24.307Z,0
2018-08-03T02:11:24.567Z,0
2018-08-03T02:12:24.556Z,0
2018-08-03T02:13:24.050Z,0
2018-08-03T02:14:24.305Z,0
2018-08-03T02:15:24.294Z,0
2018-08-03T02:16:24.545Z,0
2018-08-03T02:17:24.542Z,0
2018-08-03T02:18:24.541Z,0
2018-08-03T02:19:24.536Z,0
2018-08-03T02:20:24.033Z,0
2018-08-03T02:21:24.289Z,0
2018-08-03T02:22:24.034Z,0
2018-08-03T02:23:24.532Z,0
2018-08-03T02:24:24.531Z,0
2018-08-03T02:25:24.527Z,0
2018-08-03T02:26:24.527Z,0
2018-08-03T02:27:24.545Z,0
2018-08-03T02:28:24.277Z,0
2018-08-03T02:29:24.523Z,0
2018-08-03T02:30:24.285Z,0
2018-08-03T02:31:24.280Z,0
2018-08-03T02:32:24.289Z,0
2018-08-03T02:33:24.514Z,0
2018-08-03T02:34:24.518Z,0
2018-08-03T02:35:24.509Z,0
2018-08-03T02:36:24.536Z,0
2018-08-03T02:37:24.515Z,0
2018-08-03T02:38:24.252Z,0
2018-08-03T02:39:24.523Z,0
2018-08-03T02:40:24.504Z,0
2018-08-03T02:41:24.252Z,0
2018-08-03T02:42:24.506Z,0
2018-08-03T02:43:24.515Z,0
2018-08-03T02:44:24.494Z,0
2018-08-03T02:45:24.493Z,0
2018-08-03T02:46:24.491Z,0
2018-08-03T02:47:24.489Z,4
2018-08-03T02:48:24.502Z,4
2018-08-03T02:49:24.232Z,4
2018-08-03T02:50:24.483Z,0
2018-08-03T02:51:24.490Z,4
2018-08-03T02:52:24.485Z,4
2018-08-03T02:53:24.476Z,4
2018-08-03T02:54:24.479Z,8
2018-08-03T02:55:24.479Z,4
2018-08-03T02:56:24.468Z,8
2018-08-03T02:57:24.467Z,4
2018-08-03T02:58:23.966Z,8
2018-08-03T02:59:24.466Z,8
2018-08-03T03:00:24.463Z,8
2018-08-03T03:01:24.466Z,8
2018-08-03T03:02:24.468Z,12
2018-08-03T03:03:24.458Z,16
2018-08-03T03:04:24.202Z,16
2018-08-03T03:05:24.453Z,16
2018-08-03T03:06:24.451Z,24
2018-08-03T03:07:24.804Z,24
2018-08-03T03:08:24.447Z,28
2018-08-03T03:09:24.193Z,28
2018-08-03T03:10:24.192Z,36
2018-08-03T03:11:24.484Z,36
2018-08-03T03:12:24.440Z,44
2018-08-03T03:13:24.439Z,48
2018-08-03T03:14:24.466Z,52
2018-08-03T03:15:24.439Z,64
2018-08-03T03:16:24.186Z,72
2018-08-03T03:17:24.451Z,80
2018-08-03T03:18:24.175Z,92
2018-08-03T03:19:24.660Z,104
2018-08-03T03:20:23.922Z,116
2018-08-03T03:21:24.426Z,132
2018-08-03T03:22:24.421Z,144
2018-08-03T03:23:24.424Z,164
2018-08-03T03:24:24.171Z,184
2018-08-03T03:25:24.412Z,200
2018-08-03T03:26:24.410Z,224
2018-08-03T03:27:24.207Z,244
2018-08-03T03:28:24.158Z,272
2018-08-03T03:29:24.155Z,292
2018-08-03T03:30:24.154Z,320
2018-08-03T03:31:24.172Z,348
2018-08-03T03:32:24.155Z,376
2018-08-03T03:33:24.580Z,404
2018-08-03T03:34:24.402Z,436
2018-08-03T03:35:24.414Z,472
2018-08-03T03:36:24.395Z,508
2018-08-03T03:37:24.395Z,540
2018-08-03T03:38:24.400Z,576
2018-08-03T03:39:24.386Z,612
2018-08-03T03:40:24.383Z,652
2018-08-03T03:41:24.383Z,692
2018-08-03T03:42:24.390Z,732
2018-08-03T03:43:24.378Z,772
2018-08-03T03:44:24.380Z,816
2018-08-03T03:45:24.405Z,864
2018-08-03T03:46:24.126Z,904
2018-08-03T03:47:24.372Z,936
2018-08-03T03:48:24.123Z,964
2018-08-03T03:49:24.370Z,1000
2018-08-03T03:50:24.373Z,1040
2018-08-03T03:51:24.363Z,1088
2018-08-03T03:52:24.110Z,1144
2018-08-03T03:53:24.360Z,1200
2018-08-03T03:54:24.357Z,1252
2018-08-03T03:55:24.367Z,1304
2018-08-03T03:56:24.353Z,1356
2018-08-03T03:57:24.360Z,1416
2018-08-03T03:58:24.097Z,1464
2018-08-03T03:59:24.296Z,1508
2018-08-03T04:00:24.366Z,1548
2018-08-03T04:01:24.344Z,1604
2018-08-03T04:02:24.347Z,1668
2018-08-03T04:03:24.094Z,1736
2018-08-03T04:04:24.344Z,1796
2018-08-03T04:05:24.341Z,1840
2018-08-03T04:06:24.346Z,1888
2018-08-03T04:07:24.342Z,1924
2018-08-03T04:08:24.080Z,1948
2018-08-03T04:09:24.331Z,1952
2018-08-03T04:10:23.827Z,1960
2018-08-03T04:11:24.328Z,1980
2018-08-03T04:12:24.666Z,2000
2018-08-03T04:13:24.323Z,2020
2018-08-03T04:14:24.322Z,2064
2018-08-03T04:15:24.321Z,2116
2018-08-03T04:16:24.329Z,2176
2018-08-03T04:17:24.373Z,2256
2018-08-03T04:18:24.334Z,2404
2018-08-03T04:19:24.066Z,2608
2018-08-03T04:20:24.318Z,2828
2018-08-03T04:21:24.062Z,2976
2018-08-03T04:22:24.317Z,3084
2018-08-03T04:23:24.314Z,3164
2018-08-03T04:24:24.312Z,3136
2018-08-03T04:25:24.091Z,3020
2018-08-03T04:26:24.312Z,2884
2018-08-03T04:27:24.061Z,2768
2018-08-03T04:28:24.310Z,2696
2018-08-03T04:29:24.316Z,2672
2018-08-03T04:30:24.333Z,2676
2018-08-03T04:31:24.321Z,2700
2018-08-03T04:32:24.056Z,2768
2018-08-03T04:33:24.057Z,2832
2018-08-03T04:34:24.051Z,2892
2018-08-03T04:35:24.347Z,2976
2018-08-03T04:36:24.314Z,3096
2018-08-03T04:37:24.303Z,3188
2018-08-03T04:38:24.372Z,3288
2018-08-03T04:39:24.323Z,3404
2018-08-03T04:40:24.319Z,3600
2018-08-03T04:41:24.302Z,3820
2018-08-03T04:42:24.809Z,4208
2018-08-03T04:43:24.047Z,4644
2018-08-03T04:44:24.044Z,4828
2018-08-03T04:45:24.301Z,5004
2018-08-03T04:46:24.305Z,4844
2018-08-03T04:47:24.303Z,4768
2018-08-03T04:48:24.296Z,4636
2018-08-03T04:49:24.296Z,4748
2018-08-03T04:50:24.065Z,4800
2018-08-03T04:51:24.296Z,5108
2018-08-03T04:52:24.294Z,5332
2018-08-03T04:53:24.304Z,5400
2018-08-03T04:54:24.073Z,5184
2018-08-03T04:55:24.043Z,5032
2018-08-03T04:56:24.042Z,5036
2018-08-03T04:57:24.293Z,4724
2018-08-03T04:58:24.295Z,4484
2018-08-03T04:59:24.305Z,4644
2018-08-03T05:00:24.312Z,4816
2018-08-03T05:01:24.298Z,4456
2018-08-03T05:02:24.296Z,3864
2018-08-03T05:03:24.054Z,3932
2018-08-03T05:04:24.306Z,3904
2018-08-03T05:05:24.312Z,4028
2018-08-03T05:06:24.049Z,4176
2018-08-03T05:07:24.304Z,4324
2018-08-03T05:08:24.313Z,4516
2018-08-03T05:09:24.306Z,4716
2018-08-03T05:10:24.306Z,4952
2018-08-03T05:11:24.307Z,5256
2018-08-03T05:12:23.809Z,5480
2018-08-03T05:13:24.311Z,5572
2018-08-03T05:14:24.314Z,5656
2018-08-03T05:15:24.381Z,5772
2018-08-03T05:16:24.066Z,5900
2018-08-03T05:17:24.068Z,6080
2018-08-03T05:18:24.316Z,6304
2018-08-03T05:19:24.065Z,6576
2018-08-03T05:20:24.318Z,9732
2018-08-03T05:21:24.331Z,11220
2018-08-03T05:22:24.321Z,13260
2018-08-03T05:23:24.323Z,11808
2018-08-03T05:24:24.687Z,10200
2018-08-03T05:25:24.348Z,10748
2018-08-03T05:26:24.329Z,10060
2018-08-03T05:27:24.331Z,7268
2018-08-03T05:28:24.336Z,7092
2018-08-03T05:29:24.363Z,7140
2018-08-03T05:30:24.633Z,7184
2018-08-03T05:31:24.088Z,7232
2018-08-03T05:32:24.092Z,7388
2018-08-03T05:33:24.344Z,7676
2018-08-03T05:34:24.348Z,7992
2018-08-03T05:35:24.500Z,8288
2018-08-03T05:36:24.065Z,8508
2018-08-03T05:37:24.104Z,8632
2018-08-03T05:38:24.362Z,8608
2018-08-03T05:39:24.357Z,8448
2018-08-03T05:40:24.380Z,8240
2018-08-03T05:41:24.125Z,7960
2018-08-03T05:42:24.173Z,7780
2018-08-03T05:43:24.121Z,7864
2018-08-03T05:44:24.393Z,8120
2018-08-03T05:45:24.154Z,8440
2018-08-03T05:46:24.130Z,8696
2018-08-03T05:47:24.430Z,8868
2018-08-03T05:48:24.400Z,9060
2018-08-03T05:49:24.397Z,9308
2018-08-03T05:50:24.625Z,9500
2018-08-03T05:51:24.395Z,9644
2018-08-03T05:52:24.282Z,9744
2018-08-03T05:53:24.397Z,9780
2018-08-03T05:54:24.147Z,9824
2018-08-03T05:55:24.452Z,10004
2018-08-03T05:56:24.403Z,10280
2018-08-03T05:57:24.154Z,10636
2018-08-03T05:58:24.445Z,10996
2018-08-03T05:59:23.905Z,11348
2018-08-03T06:00:24.160Z,11756
2018-08-03T06:01:24.414Z,12240
2018-08-03T06:02:24.433Z,12856
2018-08-03T06:03:24.433Z,13488
2018-08-03T06:04:24.172Z,14028
2018-08-03T06:05:24.432Z,15520
2018-08-03T06:06:24.436Z,16800
2018-08-03T06:07:24.434Z,16096
2018-08-03T06:08:24.085Z,15296
2018-08-03T06:09:24.445Z,18368
2018-08-03T06:10:24.437Z,20992
2018-08-03T06:11:24.452Z,18848
2018-08-03T06:12:24.193Z,17824
2018-08-03T06:13:24.451Z,19104
2018-08-03T06:14:24.447Z,15936
2018-08-03T06:15:24.199Z,15216
2018-08-03T06:16:23.955Z,15328
2018-08-03T06:17:24.468Z,16736
2018-08-03T06:18:23.958Z,18400
2018-08-03T06:19:24.463Z,15456
2018-08-03T06:20:24.469Z,16512
2018-08-03T06:21:24.471Z,16640
2018-08-03T06:22:24.502Z,20800
2018-08-03T06:23:24.236Z,20832
2018-08-03T06:24:24.515Z,21728
2018-08-03T06:25:24.244Z,24480
2018-08-03T06:26:24.247Z,22688
2018-08-03T06:27:24.250Z,24640
2018-08-03T06:28:24.587Z,24000
2018-08-03T06:29:24.264Z,24224
2018-08-03T06:30:24.015Z,24352
2018-08-03T06:31:24.272Z,24288
2018-08-03T06:32:24.582Z,23840
2018-08-03T06:33:24.286Z,19200
2018-08-03T06:34:24.556Z,22752
2018-08-03T06:35:24.296Z,24736
2018-08-03T06:36:24.312Z,26080
2018-08-03T06:37:24.571Z,24640
2018-08-03T06:38:24.485Z,23392
2018-08-03T06:39:24.581Z,25088
2018-08-03T06:40:24.090Z,34304
2018-08-03T06:41:24.594Z,43488
2018-08-03T06:42:24.628Z,49312
2018-08-03T06:43:24.360Z,50784
2018-08-03T06:44:24.620Z,47520
2018-08-03T06:45:24.378Z,44896
2018-08-03T06:46:24.135Z,45440
2018-08-03T06:47:24.396Z,46880
2018-08-03T06:48:24.603Z,48992
2018-08-03T06:49:24.433Z,52448
2018-08-03T06:50:24.426Z,57536
2018-08-03T06:51:24.440Z,62624
2018-08-03T06:52:24.697Z,65760
2018-08-03T06:53:24.702Z,60576
2018-08-03T06:54:24.721Z,51008
2018-08-03T06:55:24.730Z,41376
2018-08-03T06:56:24.740Z,35840
2018-08-03T06:57:24.833Z,36192
2018-08-03T06:58:24.527Z,39520
2018-08-03T06:59:24.551Z,42976
2018-08-03T07:00:24.650Z,47104
2018-08-03T07:01:24.784Z,51968
2018-08-03T07:02:37.541Z,52544
2018-08-03T07:03:44.004Z,48064
2018-08-03T07:04:24.958Z,46752
2018-08-03T07:05:24.842Z,41184
2018-08-03T07:06:24.588Z,38112
2018-08-03T07:07:24.845Z,38336
2018-08-03T07:08:24.665Z,33888
2018-08-03T07:09:24.619Z,37632
2018-08-03T07:10:24.631Z,38880
2018-08-03T07:11:24.896Z,38720
2018-08-03T07:12:24.899Z,38144
2018-08-03T07:13:24.916Z,37696
2018-08-03T07:14:24.978Z,37504
2018-08-03T07:15:24.937Z,36704
2018-08-03T07:16:24.693Z,37184
2018-08-03T07:17:24.959Z,36672
2018-08-03T07:18:24.984Z,36768
2018-08-03T07:19:24.724Z,35040
2018-08-03T07:20:25.504Z,33600
2018-08-03T07:21:25.003Z,29600
2018-08-03T07:22:25.013Z,18400
2018-08-03T07:23:24.772Z,20896
2018-08-03T07:24:25.035Z,25536
2018-08-03T07:25:24.798Z,29664
2018-08-03T07:26:25.094Z,31104
2018-08-03T07:27:24.822Z,31200
2018-08-03T07:28:25.081Z,30944
2018-08-03T07:29:24.845Z,29952
2018-08-03T07:30:24.854Z,28608
2018-08-03T07:31:24.864Z,28000
2018-08-03T07:32:24.876Z,27360
2018-08-03T07:33:24.637Z,25760
2018-08-03T07:34:24.647Z,24512
2018-08-03T07:35:25.162Z,24576
2018-08-03T07:36:24.924Z,25984
2018-08-03T07:37:24.933Z,27904
2018-08-03T07:38:25.194Z,28800
2018-08-03T07:39:25.210Z,28736
2018-08-03T07:40:25.214Z,28416
2018-08-03T07:41:25.231Z,30016
2018-08-03T07:42:25.240Z,32576
2018-08-03T07:43:25.303Z,34432
2018-08-03T07:44:25.494Z,34912
2018-08-03T07:45:25.277Z,34528
2018-08-03T07:46:25.039Z,34176
2018-08-03T07:47:25.305Z,34944
2018-08-03T07:48:25.311Z,38208
2018-08-03T07:49:25.070Z,43808
2018-08-03T07:50:25.338Z,48224
2018-08-03T07:51:25.106Z,48480
2018-08-03T07:52:25.185Z,46624
2018-08-03T07:53:25.366Z,46304
2018-08-03T07:54:25.135Z,48896
2018-08-03T07:55:25.392Z,51904
2018-08-03T07:56:25.152Z,52256
2018-08-03T07:57:25.413Z,51040
2018-08-03T07:58:25.175Z,49824
2018-08-03T07:59:25.193Z,49408
2018-08-03T08:00:25.449Z,51520
2018-08-03T08:01:25.208Z,55712
2018-08-03T08:02:25.471Z,60960
2018-08-03T08:03:25.812Z,66080
2018-08-03T08:04:25.497Z,66944
2018-08-03T08:05:25.255Z,65344
2018-08-03T08:06:25.461Z,60576
2018-08-03T08:07:25.278Z,55712
2018-08-03T08:08:25.569Z,54336
2018-08-03T08:09:25.052Z,55680
2018-08-03T08:10:25.567Z,55200
2018-08-03T08:11:25.333Z,53952
2018-08-03T08:12:25.597Z,55808
2018-08-03T08:13:25.351Z,61216
2018-08-03T08:14:25.369Z,64608
2018-08-03T08:15:25.715Z,62976
2018-08-03T08:16:25.392Z,61760
2018-08-03T08:17:25.655Z,65376
2018-08-03T08:18:25.667Z,69920
2018-08-03T08:19:25.684Z,68960
2018-08-03T08:20:25.690Z,62208
2018-08-03T08:21:25.450Z,57792
2018-08-03T08:22:25.718Z,61152
2018-08-03T08:23:25.730Z,69408
2018-08-03T08:24:25.744Z,73536
2018-08-03T08:25:25.498Z,70112
2018-08-03T08:26:25.260Z,63424
2018-08-03T08:27:25.772Z,60768
2018-08-03T08:28:25.788Z,62464
2018-08-03T08:29:25.802Z,64448
2018-08-03T08:30:25.814Z,62400
2018-08-03T08:31:25.959Z,62752
2018-08-03T08:32:25.832Z,69568
2018-08-03T08:33:25.850Z,77600
2018-08-03T08:34:25.859Z,77664
2018-08-03T08:35:25.869Z,72000
2018-08-03T08:36:25.879Z,67328
2018-08-03T08:37:25.642Z,66496
2018-08-03T08:38:25.907Z,68064
2018-08-03T08:39:25.916Z,64800
2018-08-03T08:40:25.930Z,59136
2018-08-03T08:41:25.942Z,55392
2018-08-03T08:42:25.953Z,54656
2018-08-03T08:43:25.793Z,54304
2018-08-03T08:44:25.730Z,57120
2018-08-03T08:45:25.746Z,66080
2018-08-03T08:46:25.752Z,78624
2018-08-03T08:47:26.032Z,82304
2018-08-03T08:48:25.523Z,74752
2018-08-03T08:49:26.046Z,62912
2018-08-03T08:50:25.548Z,36416
2018-08-03T08:51:26.062Z,11856
2018-08-03T08:52:25.825Z,10360
2018-08-03T08:53:25.984Z,10192
2018-08-03T08:54:26.094Z,10132
2018-08-03T08:55:26.120Z,10104
2018-08-03T08:56:25.869Z,10048
2018-08-03T08:57:25.875Z,10012
2018-08-03T08:58:26.137Z,9952
2018-08-03T08:59:26.154Z,9912
2018-08-03T09:00:26.155Z,9864
2018-08-03T09:01:25.920Z,9820
2018-08-03T09:02:25.929Z,9776
2018-08-03T09:03:25.931Z,9732
2018-08-03T09:04:26.442Z,9692
2018-08-03T09:05:25.949Z,9640
2018-08-03T09:06:25.957Z,9596
2018-08-03T09:07:26.475Z,9544
2018-08-03T09:08:26.227Z,9472
2018-08-03T09:09:25.980Z,9376
2018-08-03T09:10:26.254Z,9352
2018-08-03T09:11:26.248Z,9300
2018-08-03T09:12:26.010Z,9240
2018-08-03T09:13:26.015Z,9176
2018-08-03T09:14:26.017Z,9136
2018-08-03T09:15:26.275Z,9120
2018-08-03T09:16:26.035Z,9048
2018-08-03T09:17:26.037Z,9036
2018-08-03T09:18:26.545Z,9000
2018-08-03T09:19:26.052Z,8964
2018-08-03T09:20:26.311Z,8916
2018-08-03T09:21:26.311Z,8888
2018-08-03T09:22:26.325Z,8828
2018-08-03T09:23:26.072Z,8796
2018-08-03T09:24:26.138Z,8756
2018-08-03T09:25:26.336Z,8708
2018-08-03T09:26:25.842Z,8656
2018-08-03T09:27:26.352Z,8620
2018-08-03T09:28:26.221Z,8568
2018-08-03T09:29:26.122Z,8504
2018-08-03T09:30:26.119Z,8488
2018-08-03T09:31:26.374Z,8428
2018-08-03T09:32:26.382Z,8412
2018-08-03T09:33:26.389Z,8360
2018-08-03T09:34:26.385Z,8316
2018-08-03T09:35:26.393Z,8276
2018-08-03T09:36:26.479Z,8248
2018-08-03T09:37:26.407Z,8220
2018-08-03T09:38:26.413Z,8180
2018-08-03T09:39:26.411Z,8144
2018-08-03T09:40:25.914Z,8100
2018-08-03T09:41:26.427Z,8080
2018-08-03T09:42:26.176Z,8056
2018-08-03T09:43:26.434Z,8044
2018-08-03T09:44:26.187Z,8032
2018-08-03T09:45:26.447Z,8024
2018-08-03T09:46:26.202Z,8020
2018-08-03T09:47:26.209Z,8004
2018-08-03T09:48:26.459Z,7980
2018-08-03T09:49:26.214Z,7960
2018-08-03T09:50:25.963Z,7932
2018-08-03T09:51:26.487Z,7888
2018-08-03T09:52:26.478Z,7836
2018-08-03T09:53:26.234Z,7828
2018-08-03T09:54:26.322Z,7816
2018-08-03T09:55:26.521Z,7820
2018-08-03T09:56:26.500Z,7808
2018-08-03T09:57:26.506Z,7804
2018-08-03T09:58:26.508Z,7792
2018-08-03T09:59:26.517Z,7760
2018-08-03T10:00:26.264Z,7744
2018-08-03T10:01:26.521Z,7712
2018-08-03T10:02:26.536Z,7672
2018-08-03T10:03:26.533Z,7640
2018-08-03T10:04:26.285Z,7608
2018-08-03T10:05:26.547Z,7596
2018-08-03T10:06:26.548Z,7564
2018-08-03T10:07:26.773Z,7580
2018-08-03T10:08:26.560Z,7564
2018-08-03T10:09:26.564Z,7532
2018-08-03T10:10:26.067Z,7500
2018-08-03T10:11:26.323Z,7484
2018-08-03T10:12:26.325Z,7444
2018-08-03T10:13:26.330Z,7420
2018-08-03T10:14:26.335Z,7336
2018-08-03T10:15:26.426Z,7284
2018-08-03T10:16:26.598Z,7248
2018-08-03T10:17:26.602Z,7240
2018-08-03T10:18:26.605Z,7188
2018-08-03T10:19:26.368Z,7176
2018-08-03T10:20:26.365Z,7160
2018-08-03T10:21:26.619Z,7120
2018-08-03T10:22:26.799Z,7104
2018-08-03T10:23:26.130Z,7080
2018-08-03T10:24:26.635Z,7076
2018-08-03T10:25:26.648Z,7064
2018-08-03T10:26:26.401Z,7028
2018-08-03T10:27:26.654Z,6992
2018-08-03T10:28:26.407Z,6968
2018-08-03T10:29:26.410Z,6900
2018-08-03T10:30:26.669Z,6852
2018-08-03T10:31:26.672Z,6796
2018-08-03T10:32:26.689Z,6744
2018-08-03T10:33:26.434Z,6692
2018-08-03T10:34:26.704Z,6676
2018-08-03T10:35:26.696Z,6656
2018-08-03T10:36:26.446Z,6640
2018-08-03T10:37:26.700Z,6652
2018-08-03T10:38:26.708Z,6620
2018-08-03T10:39:26.464Z,6612
2018-08-03T10:40:26.718Z,6596
2018-08-03T10:41:26.721Z,6544
2018-08-03T10:42:26.475Z,6496
2018-08-03T10:43:26.735Z,6444
2018-08-03T10:44:26.494Z,6412
2018-08-03T10:45:26.491Z,6384
2018-08-03T10:46:26.748Z,6360
2018-08-03T10:47:26.500Z,6348
2018-08-03T10:48:26.506Z,6320
2018-08-03T10:49:26.511Z,6300
2018-08-03T10:50:26.525Z,6268
2018-08-03T10:51:27.033Z,6260
2018-08-03T10:52:26.525Z,6204
2018-08-03T10:53:26.532Z,6196
2018-08-03T10:54:26.550Z,6136
2018-08-03T10:55:26.552Z,6120
2018-08-03T10:56:26.805Z,6112
2018-08-03T10:57:26.805Z,6080
2018-08-03T10:58:27.091Z,6088
2018-08-03T10:59:26.573Z,6076
2018-08-03T11:00:26.865Z,6076
2018-08-03T11:01:27.237Z,6068
2018-08-03T11:02:26.580Z,6068
2018-08-03T11:03:26.585Z,6688
2018-08-03T11:04:26.840Z,6708
2018-08-03T11:05:26.851Z,6696
2018-08-03T11:06:26.855Z,6656
2018-08-03T11:07:26.854Z,6636
2018-08-03T11:08:26.609Z,6612
2018-08-03T11:09:26.616Z,6608
2018-08-03T11:10:26.627Z,6608
2018-08-03T11:11:26.627Z,6540
2018-08-03T11:12:26.636Z,6548
2018-08-03T11:13:26.943Z,6508
2018-08-03T11:14:26.646Z,6488
2018-08-03T11:15:26.897Z,6512
2018-08-03T11:16:26.916Z,6488
2018-08-03T11:17:26.661Z,6496
2018-08-03T11:18:26.663Z,6464
2018-08-03T11:19:26.676Z,6448
2018-08-03T11:20:26.921Z,6456
2018-08-03T11:21:26.926Z,6432
2018-08-03T11:22:26.693Z,6444
2018-08-03T11:23:26.941Z,6456
2018-08-03T11:24:27.413Z,6428
2018-08-03T11:25:26.450Z,6404
2018-08-03T11:26:26.957Z,6416
2018-08-03T11:27:26.961Z,6416
2018-08-03T11:28:26.714Z,6392
2018-08-03T11:29:26.724Z,6372
2018-08-03T11:30:26.983Z,6348
2018-08-03T11:31:26.989Z,6328
2018-08-03T11:32:26.989Z,6332
2018-08-03T11:33:26.992Z,6284
2018-08-03T11:34:27.006Z,6264
2018-08-03T11:35:27.007Z,6284
2018-08-03T11:36:27.015Z,6236
2018-08-03T11:37:26.762Z,6228
2018-08-03T11:38:26.768Z,6232
2018-08-03T11:39:26.772Z,6240
2018-08-03T11:40:27.030Z,6248
2018-08-03T11:41:27.044Z,6248
2018-08-03T11:42:27.042Z,6244
2018-08-03T11:43:26.795Z,6244
2018-08-03T11:44:26.805Z,6224
2018-08-03T11:45:27.056Z,6224
2018-08-03T11:46:27.060Z,6244
2018-08-03T11:47:26.816Z,6192
2018-08-03T11:48:27.351Z,6156
2018-08-03T11:49:26.574Z,6152
2018-08-03T11:50:27.085Z,6136
2018-08-03T11:51:27.102Z,6096
2018-08-03T11:52:27.093Z,6068
2018-08-03T11:53:27.110Z,6080
2018-08-03T11:54:27.105Z,6048
2018-08-03T11:55:27.111Z,6068
2018-08-03T11:56:27.128Z,6028
2018-08-03T11:57:26.869Z,6024
2018-08-03T11:58:27.124Z,6032
2018-08-03T11:59:27.131Z,5996
2018-08-03T12:00:26.883Z,6020
2018-08-03T12:01:27.150Z,5992
2018-08-03T12:02:26.895Z,5980
2018-08-03T12:03:27.156Z,5920
2018-08-03T12:04:27.157Z,5908
2018-08-03T12:05:26.917Z,5940
2018-08-03T12:06:27.412Z,5916
2018-08-03T12:07:27.180Z,5936
2018-08-03T12:08:27.182Z,5916
2018-08-03T12:09:26.683Z,5940
2018-08-03T12:10:27.197Z,5920
2018-08-03T12:11:26.944Z,5936
2018-08-03T12:12:27.132Z,5952
2018-08-03T12:13:27.205Z,5976
2018-08-03T12:14:27.213Z,5928
2018-08-03T12:15:26.972Z,5960
2018-08-03T12:16:27.224Z,5960
2018-08-03T12:17:27.229Z,5936
2018-08-03T12:18:27.234Z,5904
2018-08-03T12:19:26.988Z,5908
2018-08-03T12:20:27.245Z,5868
2018-08-03T12:21:27.251Z,5864
2018-08-03T12:22:27.256Z,5824
2018-08-03T12:23:27.389Z,5836
2018-08-03T12:24:27.025Z,5816
2018-08-03T12:25:27.275Z,5804
2018-08-03T12:26:27.321Z,5800
2018-08-03T12:27:27.288Z,5816
2018-08-03T12:28:26.787Z,5800
2018-08-03T12:29:27.296Z,5784
2018-08-03T12:30:27.303Z,5768
2018-08-03T12:31:27.253Z,5760
2018-08-03T12:32:27.310Z,5756
2018-08-03T12:33:27.315Z,5740
2018-08-03T12:34:27.325Z,5732
2018-08-03T12:35:27.329Z,5724
2018-08-03T12:36:27.080Z,5740
2018-08-03T12:37:27.359Z,5732
2018-08-03T12:38:27.345Z,5724
2018-08-03T12:39:26.848Z,5712
2018-08-03T12:40:27.108Z,5688
2018-08-03T12:41:27.115Z,5680
2018-08-03T12:42:26.862Z,5012
2018-08-03T12:43:27.609Z,4992
2018-08-03T12:44:26.872Z,4964
2018-08-03T12:45:36.677Z,4940
2018-08-03T12:46:27.390Z,4924
2018-08-03T12:47:27.144Z,4916
2018-08-03T12:48:27.410Z,4908
2018-08-03T12:49:26.907Z,4904
2018-08-03T12:50:27.418Z,4900
2018-08-03T12:51:27.434Z,4892
2018-08-03T12:52:26.979Z,4884
2018-08-03T12:53:27.174Z,4880
2018-08-03T12:54:26.928Z,4872
2018-08-03T12:55:27.451Z,4868
2018-08-03T12:56:27.483Z,4860
2018-08-03T12:57:27.449Z,4856
2018-08-03T12:58:27.466Z,4844
2018-08-03T12:59:27.539Z,4832
2018-08-03T13:00:27.213Z,4820
2018-08-03T13:01:27.646Z,4804
2018-08-03T13:02:27.257Z,4788
2018-08-03T13:03:27.485Z,4764
2018-08-03T13:04:27.083Z,4744
2018-08-03T13:05:27.500Z,4732
2018-08-03T13:06:27.249Z,4720
2018-08-03T13:07:27.645Z,4712
2018-08-03T13:08:28.746Z,4704
2018-08-03T13:09:27.524Z,4704
2018-08-03T13:10:27.530Z,4696
2018-08-03T13:11:27.528Z,4696
2018-08-03T13:12:27.287Z,4696
2018-08-03T13:13:27.632Z,4692
2018-08-03T13:14:27.550Z,4688
2018-08-03T13:15:27.051Z,4688
2018-08-03T13:16:27.307Z,4688
2018-08-03T13:17:27.313Z,4684
2018-08-03T13:18:27.570Z,4684
2018-08-03T13:19:27.069Z,4684
2018-08-03T13:20:27.580Z,4676
2018-08-03T13:21:27.773Z,4668
2018-08-03T13:22:27.589Z,4652
2018-08-03T13:23:27.596Z,4640
2018-08-03T13:24:27.107Z,4628
2018-08-03T13:25:27.106Z,4620
2018-08-03T13:26:27.359Z,4616
2018-08-03T13:27:27.809Z,4616
2018-08-03T13:28:27.623Z,4612
2018-08-03T13:29:27.883Z,4612
2018-08-03T13:30:27.635Z,4616
2018-08-03T13:31:27.393Z,4620
2018-08-03T13:32:27.646Z,4616
2018-08-03T13:33:27.652Z,4608